sensor_id;sensor_type;location;lat;lon;timestamp;pressure;altitude;pressure_sealevel;temperature;humidity
74435;BME280;62867;52.038;29.256;2024-02-21T00:04:43;1019;;;5;69.2
74435;BME280;62867;52.038;29.256;2024-02-21T00:09:40;1019;;;5;69.1
74435;BME280;62867;52.038;29.256;2024-02-21T00:14:16;1019;;;5;69.2
74435;BME280;62867;52.038;29.256;2024-02-21T00:19:30;1019;;;5;68.9
74435;BME280;62867;52.038;29.256;2024-02-21T00:25:04;1019;;;5;69
74435;BME280;62867;52.038;29.256;2024-02-21T00:29:14;1019;;;5;69
74435;BME280;62867;52.038;29.256;2024-02-21T00:34:36;1019;;;5;68.8
74435;BME280;62867;52.038;29.256;2024-02-21T00:40:05;1018.9;;;5.1;69
74435;BME280;62867;52.038;29.256;2024-02-21T00:44:26;1018.9;;;5.1;69
74435;BME280;62867;52.038;29.256;2024-02-21T00:49:14;1018.9;;;5.1;69.2
74435;BME280;62867;52.038;29.256;2024-02-21T00:54:34;1019;;;5.1;69.1
74435;BME280;62867;52.038;29.256;2024-02-21T00:59:14;1018.9;;;5.1;69.1
74435;BME280;62867;52.038;29.256;2024-02-21T01:04:14;1018.9;;;5.1;69
74435;BME280;62867;52.038;29.256;2024-02-21T01:10:05;1018.8;;;5.1;68.9
74435;BME280;62867;52.038;29.256;2024-02-21T01:14:14;1018.8;;;5.1;68.9
74435;BME280;62867;52.038;29.256;2024-02-21T01:20:05;1018.9;;;5.1;68.5
74435;BME280;62867;52.038;29.256;2024-02-21T01:24:33;1018.9;;;5.1;68.5
74435;BME280;62867;52.038;29.256;2024-02-21T01:30:05;1019;;;5;68.8
74435;BME280;62867;52.038;29.256;2024-02-21T01:34:50;1019;;;5;68.8
74435;BME280;62867;52.038;29.256;2024-02-21T01:39:16;1019;;;5;68.8
74435;BME280;62867;52.038;29.256;2024-02-21T01:44:15;1019;;;5;69
74435;BME280;62867;52.038;29.256;2024-02-21T01:49:54;1019;;;5.1;69
74435;BME280;62867;52.038;29.256;2024-02-21T01:54:15;1019;;;5.1;69
74435;BME280;62867;52.038;29.256;2024-02-21T02:00:05;1019;;;5.1;68.9
74435;BME280;62867;52.038;29.256;2024-02-21T02:04:30;1019;;;5.1;68.9
74435;BME280;62867;52.038;29.256;2024-02-21T02:09:44;1019;;;5.1;68.8
74435;BME280;62867;52.038;29.256;2024-02-21T02:15:05;1019;;;5;68.4
74435;BME280;62867;52.038;29.256;2024-02-21T02:19:15;1019;;;5;68.4
74435;BME280;62867;52.038;29.256;2024-02-21T02:24:44;1019;;;5;68.4
74435;BME280;62867;52.038;29.256;2024-02-21T02:29:34;1019;;;4.9;68.3
74435;BME280;62867;52.038;29.256;2024-02-21T02:34:40;1019.1;;;4.9;68.4
74435;BME280;62867;52.038;29.256;2024-02-21T02:39:15;1019.1;;;4.9;68.6
74435;BME280;62867;52.038;29.256;2024-02-21T02:45:05;1019.2;;;5;68.7
74435;BME280;62867;52.038;29.256;2024-02-21T02:49:35;1019.2;;;5;68.7
74435;BME280;62867;52.038;29.256;2024-02-21T02:54:55;1019.2;;;5;68.6
74435;BME280;62867;52.038;29.256;2024-02-21T02:59:47;1019.2;;;5;68.5
74435;BME280;62867;52.038;29.256;2024-02-21T03:04:53;1019.2;;;5;68.6
74435;BME280;62867;52.038;29.256;2024-02-21T03:09:51;1019.2;;;5;68.5
74435;BME280;62867;52.038;29.256;2024-02-21T03:14:25;1019.3;;;4.9;68.3
74435;BME280;62867;52.038;29.256;2024-02-21T03:20:05;1019.4;;;4.9;68.1
74435;BME280;62867;52.038;29.256;2024-02-21T03:25:05;1019.4;;;4.9;68.1
74435;BME280;62867;52.038;29.256;2024-02-21T03:29:51;1019.4;;;4.9;68.1
74435;BME280;62867;52.038;29.256;2024-02-21T03:35:05;1019.4;;;4.9;68.2
74435;BME280;62867;52.038;29.256;2024-02-21T03:40:06;1019.5;;;4.9;68.3
74435;BME280;62867;52.038;29.256;2024-02-21T03:44:25;1019.5;;;4.9;68.3
74435;BME280;62867;52.038;29.256;2024-02-21T03:50:03;1019.6;;;4.9;68.5
74435;BME280;62867;52.038;29.256;2024-02-21T03:54:15;1019.6;;;4.9;68.5
74435;BME280;62867;52.038;29.256;2024-02-21T03:59:23;1019.6;;;4.9;68.3
74435;BME280;62867;52.038;29.256;2024-02-21T04:04:43;1019.6;;;4.9;68.3
74435;BME280;62867;52.038;29.256;2024-02-21T04:09:41;1019.6;;;4.9;68.4
74435;BME280;62867;52.038;29.256;2024-02-21T04:14:15;1019.6;;;4.8;68.1
74435;BME280;62867;52.038;29.256;2024-02-21T04:19:35;1019.6;;;4.8;68.2
74435;BME280;62867;52.038;29.256;2024-02-21T04:24:55;1019.6;;;4.8;68.1
74435;BME280;62867;52.038;29.256;2024-02-21T04:30:06;1019.6;;;4.8;68.4
74435;BME280;62867;52.038;29.256;2024-02-21T04:34:33;1019.6;;;4.8;68.4
74435;BME280;62867;52.038;29.256;2024-02-21T04:39:45;1019.7;;;4.8;68.6
74435;BME280;62867;52.038;29.256;2024-02-21T04:45:05;1019.8;;;4.8;68.6
74435;BME280;62867;52.038;29.256;2024-02-21T04:49:55;1019.8;;;4.8;68.6
74435;BME280;62867;52.038;29.256;2024-02-21T04:54:51;1019.7;;;4.8;68.7
74435;BME280;62867;52.038;29.256;2024-02-21T04:59:41;1019.8;;;4.9;68.8
74435;BME280;62867;52.038;29.256;2024-02-21T05:04:33;1019.8;;;4.9;68.7
74435;BME280;62867;52.038;29.256;2024-02-21T05:09:15;1019.8;;;4.9;68.5
74435;BME280;62867;52.038;29.256;2024-02-21T05:15:05;1019.9;;;4.9;68.3
74435;BME280;62867;52.038;29.256;2024-02-21T05:19:15;1019.9;;;4.9;68.3
74435;BME280;62867;52.038;29.256;2024-02-21T05:24:49;1019.9;;;4.9;68.1
74435;BME280;62867;52.038;29.256;2024-02-21T05:29:15;1019.9;;;4.9;68.1
74435;BME280;62867;52.038;29.256;2024-02-21T05:35:01;1020;;;4.9;67.9
74435;BME280;62867;52.038;29.256;2024-02-21T05:39:49;1020;;;4.9;68.1
74435;BME280;62867;52.038;29.256;2024-02-21T05:44:23;1020;;;4.9;68.4
74435;BME280;62867;52.038;29.256;2024-02-21T05:49:33;1020;;;4.9;68.4
74435;BME280;62867;52.038;29.256;2024-02-21T05:54:15;1020;;;4.9;68.5
74435;BME280;62867;52.038;29.256;2024-02-21T05:59:23;1020;;;5;68.4
74435;BME280;62867;52.038;29.256;2024-02-21T06:05:03;1020;;;5;68
74435;BME280;62867;52.038;29.256;2024-02-21T06:10:03;1020;;;5;67.8
74435;BME280;62867;52.038;29.256;2024-02-21T06:14:23;1020;;;5;67.8
74435;BME280;62867;52.038;29.256;2024-02-21T06:19:53;1020.1;;;5;67.9
74435;BME280;62867;52.038;29.256;2024-02-21T06:24:53;1020.1;;;5.1;67.9
74435;BME280;62867;52.038;29.256;2024-02-21T06:29:49;1020.2;;;5.1;68
74435;BME280;62867;52.038;29.256;2024-02-21T06:34:31;1020.3;;;5.1;68.3
74435;BME280;62867;52.038;29.256;2024-02-21T06:39:49;1020.3;;;5.1;68.2
74435;BME280;62867;52.038;29.256;2024-02-21T06:44:39;1020.3;;;5.2;68.1
74435;BME280;62867;52.038;29.256;2024-02-21T06:50:03;1020.4;;;5.2;67.7
74435;BME280;62867;52.038;29.256;2024-02-21T06:54:41;1020.4;;;5.2;67.7
74435;BME280;62867;52.038;29.256;2024-02-21T06:59:49;1020.4;;;5.2;67.9
74435;BME280;62867;52.038;29.256;2024-02-21T07:04:45;1020.4;;;5.3;68
74435;BME280;62867;52.038;29.256;2024-02-21T07:10:03;1020.4;;;5.5;67.5
74435;BME280;62867;52.038;29.256;2024-02-21T07:14:31;1020.4;;;5.5;67.5
74435;BME280;62867;52.038;29.256;2024-02-21T07:19:21;1020.4;;;5.5;67.4
74435;BME280;62867;52.038;29.256;2024-02-21T07:24:41;1020.4;;;5.5;67.5
74435;BME280;62867;52.038;29.256;2024-02-21T07:29:15;1020.4;;;5.5;67.7
74435;BME280;62867;52.038;29.256;2024-02-21T07:34:23;1020.4;;;5.6;67.6
74435;BME280;62867;52.038;29.256;2024-02-21T07:40:03;1020.5;;;5.7;67
74435;BME280;62867;52.038;29.256;2024-02-21T07:45:03;1020.5;;;5.8;67
74435;BME280;62867;52.038;29.256;2024-02-21T07:49:45;1020.5;;;5.8;67
74435;BME280;62867;52.038;29.256;2024-02-21T07:54:53;1020.5;;;5.9;66.7
74435;BME280;62867;52.038;29.256;2024-02-21T07:59:15;1020.6;;;5.9;66.7
74435;BME280;62867;52.038;29.256;2024-02-21T08:04:50;1020.7;;;6.1;66.3
74435;BME280;62867;52.038;29.256;2024-02-21T08:09:39;1020.6;;;6.2;66.5
74435;BME280;62867;52.038;29.256;2024-02-21T08:15:03;1020.6;;;6.7;66
74435;BME280;62867;52.038;29.256;2024-02-21T08:19:15;1020.6;;;6.7;66
74435;BME280;62867;52.038;29.256;2024-02-21T08:24:17;1020.6;;;6.8;65.2
74435;BME280;62867;52.038;29.256;2024-02-21T08:29:23;1020.6;;;6.9;64.7
74435;BME280;62867;52.038;29.256;2024-02-21T08:35:03;1020.6;;;7.1;64.1
74435;BME280;62867;52.038;29.256;2024-02-21T08:39:45;1020.6;;;7.1;64.1
74435;BME280;62867;52.038;29.256;2024-02-21T08:44:45;1020.7;;;7.2;64.1
74435;BME280;62867;52.038;29.256;2024-02-21T08:50:03;1020.7;;;7.2;63.9
74435;BME280;62867;52.038;29.256;2024-02-21T08:54:35;1020.7;;;7.2;63.9
74435;BME280;62867;52.038;29.256;2024-02-21T08:59:15;1020.7;;;7.2;63.7
74435;BME280;62867;52.038;29.256;2024-02-21T09:04:15;1020.7;;;7.3;63.8
74435;BME280;62867;52.038;29.256;2024-02-21T09:09:35;1020.7;;;7.3;63.6
74435;BME280;62867;52.038;29.256;2024-02-21T09:14:23;1020.8;;;7.4;62.9
74435;BME280;62867;52.038;29.256;2024-02-21T09:19:55;1020.8;;;7.4;62.5
74435;BME280;62867;52.038;29.256;2024-02-21T09:24:41;1020.9;;;7.4;62.6
74435;BME280;62867;52.038;29.256;2024-02-21T09:30:03;1020.9;;;7.3;62.7
74435;BME280;62867;52.038;29.256;2024-02-21T09:34:45;1020.9;;;7.3;62.7
74435;BME280;62867;52.038;29.256;2024-02-21T09:39:53;1020.9;;;7.3;62.8
74435;BME280;62867;52.038;29.256;2024-02-21T09:44:32;1020.9;;;7.2;63.3
74435;BME280;62867;52.038;29.256;2024-02-21T09:50:03;1020.9;;;7.2;63.8
74435;BME280;62867;52.038;29.256;2024-02-21T09:55:03;1021;;;7.2;63.9
74435;BME280;62867;52.038;29.256;2024-02-21T10:00:03;1021;;;7.1;63.9
74435;BME280;62867;52.038;29.256;2024-02-21T10:04:49;1021;;;7.1;63.9
74435;BME280;62867;52.038;29.256;2024-02-21T10:10:03;1021;;;6.8;63.5
74435;BME280;62867;52.038;29.256;2024-02-21T10:15:03;1021;;;6.7;63.8
74435;BME280;62867;52.038;29.256;2024-02-21T10:19:45;1021;;;6.7;63.8
74435;BME280;62867;52.038;29.256;2024-02-21T10:24:47;1021;;;6.7;64.1
74435;BME280;62867;52.038;29.256;2024-02-21T10:29:23;1020.9;;;6.7;64
74435;BME280;62867;52.038;29.256;2024-02-21T10:35:00;1020.9;;;6.9;64.2
74435;BME280;62867;52.038;29.256;2024-02-21T10:39:15;1020.9;;;7;63.9
74435;BME280;62867;52.038;29.256;2024-02-21T10:44:41;1020.8;;;7.2;63.5
74435;BME280;62867;52.038;29.256;2024-02-21T10:49:23;1020.8;;;7.4;63.4
74435;BME280;62867;52.038;29.256;2024-02-21T10:54:24;1020.8;;;7.4;63.3
74435;BME280;62867;52.038;29.256;2024-02-21T10:59:15;1020.8;;;7.3;63.3
74435;BME280;62867;52.038;29.256;2024-02-21T11:05:05;1020.9;;;7.1;63.8
74435;BME280;62867;52.038;29.256;2024-02-21T11:10:05;1020.9;;;7.1;64.2
74435;BME280;62867;52.038;29.256;2024-02-21T11:14:23;1020.9;;;7.1;64.2
74435;BME280;62867;52.038;29.256;2024-02-21T11:20:12;1020.8;;;7;63.7
74435;BME280;62867;52.038;29.256;2024-02-21T11:24:55;1020.8;;;7;63.7
74435;BME280;62867;52.038;29.256;2024-02-21T11:30:05;1020.8;;;7;63.5
74435;BME280;62867;52.038;29.256;2024-02-21T11:35:05;1020.8;;;6.9;63.8
74435;BME280;62867;52.038;29.256;2024-02-21T11:39:26;1020.8;;;6.9;63.8
74435;BME280;62867;52.038;29.256;2024-02-21T11:45:06;1020.7;;;6.9;64.1
74435;BME280;62867;52.038;29.256;2024-02-21T11:49:43;1020.7;;;6.9;64.1
74435;BME280;62867;52.038;29.256;2024-02-21T11:54:43;1020.6;;;6.9;64.3
74435;BME280;62867;52.038;29.256;2024-02-21T11:59:53;1020.6;;;7;64.2
74435;BME280;62867;52.038;29.256;2024-02-21T12:04:31;1020.6;;;7.2;64
74435;BME280;62867;52.038;29.256;2024-02-21T12:09:33;1020.6;;;7.1;63.8
74435;BME280;62867;52.038;29.256;2024-02-21T12:14:15;1020.6;;;7;63.9
74435;BME280;62867;52.038;29.256;2024-02-21T12:19:55;1020.7;;;7;63.9
74435;BME280;62867;52.038;29.256;2024-02-21T12:25:15;1020.7;;;7;63.8
74435;BME280;62867;52.038;29.256;2024-02-21T12:29:15;1020.7;;;7;63.8
74435;BME280;62867;52.038;29.256;2024-02-21T12:34:33;1020.7;;;7.1;63.8
74435;BME280;62867;52.038;29.256;2024-02-21T12:40:03;1020.6;;;7.2;63.5
74435;BME280;62867;52.038;29.256;2024-02-21T12:44:37;1020.6;;;7.2;63.5
74435;BME280;62867;52.038;29.256;2024-02-21T12:49:35;1020.7;;;7.3;63.5
74435;BME280;62867;52.038;29.256;2024-02-21T12:55:05;1020.7;;;7.4;63.9
74435;BME280;62867;52.038;29.256;2024-02-21T12:59:55;1020.7;;;7.4;63.9
74435;BME280;62867;52.038;29.256;2024-02-21T13:04:17;1020.7;;;7.3;63.3
74435;BME280;62867;52.038;29.256;2024-02-21T13:09:41;1020.7;;;7.2;63.6
74435;BME280;62867;52.038;29.256;2024-02-21T13:14:17;1020.7;;;7.2;63.4
74435;BME280;62867;52.038;29.256;2024-02-21T13:19:51;1020.7;;;7.1;63.7
74435;BME280;62867;52.038;29.256;2024-02-21T13:25:05;1020.7;;;6.9;63.9
74435;BME280;62867;52.038;29.256;2024-02-21T13:29:23;1020.7;;;6.9;63.9
74435;BME280;62867;52.038;29.256;2024-02-21T13:34:51;1020.7;;;6.8;64.1
74435;BME280;62867;52.038;29.256;2024-02-21T13:39:31;1020.7;;;6.7;64.7
74435;BME280;62867;52.038;29.256;2024-02-21T13:45:05;1020.7;;;6.6;65.2
74435;BME280;62867;52.038;29.256;2024-02-21T13:49:15;1020.7;;;6.6;65.2
74435;BME280;62867;52.038;29.256;2024-02-21T13:54:29;1020.7;;;6.6;65.4
74435;BME280;62867;52.038;29.256;2024-02-21T13:59:23;1020.7;;;6.5;65.4
74435;BME280;62867;52.038;29.256;2024-02-21T14:04:55;1020.6;;;6.5;65.5
74435;BME280;62867;52.038;29.256;2024-02-21T14:09:41;1020.6;;;6.5;65.5
74435;BME280;62867;52.038;29.256;2024-02-21T14:14:55;1020.6;;;6.5;65.4
74435;BME280;62867;52.038;29.256;2024-02-21T14:20:06;1020.6;;;6.4;65.4
74435;BME280;62867;52.038;29.256;2024-02-21T14:24:15;1020.6;;;6.4;65.4
74435;BME280;62867;52.038;29.256;2024-02-21T14:29:55;1020.6;;;6.3;65.7
74435;BME280;62867;52.038;29.256;2024-02-21T14:34:47;1020.6;;;6.3;65.8
74435;BME280;62867;52.038;29.256;2024-02-21T14:39:51;1020.6;;;6.3;65.9
74435;BME280;62867;52.038;29.256;2024-02-21T14:44:33;1020.7;;;6.3;66.1
74435;BME280;62867;52.038;29.256;2024-02-21T14:49:55;1020.8;;;6.2;66.2
74435;BME280;62867;52.038;29.256;2024-02-21T14:54:15;1020.8;;;6.2;66.3
74435;BME280;62867;52.038;29.256;2024-02-21T14:59:55;1020.8;;;6.1;66.3
74435;BME280;62867;52.038;29.256;2024-02-21T15:04:45;1020.8;;;6.1;66.5
74435;BME280;62867;52.038;29.256;2024-02-21T15:10:05;1020.7;;;6;66.3
74435;BME280;62867;52.038;29.256;2024-02-21T15:14:15;1020.7;;;6;66.3
74435;BME280;62867;52.038;29.256;2024-02-21T15:19:55;1020.7;;;6;66.2
74435;BME280;62867;52.038;29.256;2024-02-21T15:25:03;1020.6;;;5.8;65.9
74435;BME280;62867;52.038;29.256;2024-02-21T15:29:43;1020.6;;;5.8;65.9
74435;BME280;62867;52.038;29.256;2024-02-21T15:34:29;1020.5;;;5.6;66
74435;BME280;62867;52.038;29.256;2024-02-21T15:39:23;1020.6;;;5.5;66.2
74435;BME280;62867;52.038;29.256;2024-02-21T15:44:27;1020.6;;;5.4;66.5
74435;BME280;62867;52.038;29.256;2024-02-21T15:49:43;1020.7;;;5.4;67.2
74435;BME280;62867;52.038;29.256;2024-02-21T15:55:05;1020.6;;;5.5;67.2
74435;BME280;62867;52.038;29.256;2024-02-21T15:59:27;1020.6;;;5.5;67.2
74435;BME280;62867;52.038;29.256;2024-02-21T16:05:06;1020.6;;;5.5;67.3
74435;BME280;62867;52.038;29.256;2024-02-21T16:09:17;1020.6;;;5.5;67.3
74435;BME280;62867;52.038;29.256;2024-02-21T16:15:05;1020.6;;;5.4;66.8
74435;BME280;62867;52.038;29.256;2024-02-21T16:19:51;1020.6;;;5.4;66.8
74435;BME280;62867;52.038;29.256;2024-02-21T16:24:57;1020.5;;;5.4;66.8
74435;BME280;62867;52.038;29.256;2024-02-21T16:29:49;1020.5;;;5.4;66.8
74435;BME280;62867;52.038;29.256;2024-02-21T16:34:57;1020.5;;;5.4;66.8
74435;BME280;62867;52.038;29.256;2024-02-21T16:39:31;1020.6;;;5.4;67.8
74435;BME280;62867;52.038;29.256;2024-02-21T16:44:47;1020.6;;;5.4;67.8
74435;BME280;62867;52.038;29.256;2024-02-21T16:49:39;1020.6;;;5.5;68
74435;BME280;62867;52.038;29.256;2024-02-21T16:54:39;1020.6;;;5.5;68
74435;BME280;62867;52.038;29.256;2024-02-21T17:00:07;1020.5;;;5.6;68.2
74435;BME280;62867;52.038;29.256;2024-02-21T17:04:15;1020.5;;;5.6;68.2
74435;BME280;62867;52.038;29.256;2024-02-21T17:09:23;1020.5;;;5.6;68.2
74435;BME280;62867;52.038;29.256;2024-02-21T17:15:03;1020.5;;;5.7;67.8
74435;BME280;62867;52.038;29.256;2024-02-21T17:19:23;1020.5;;;5.7;67.8
74435;BME280;62867;52.038;29.256;2024-02-21T17:24:43;1020.5;;;5.7;67.8
74435;BME280;62867;52.038;29.256;2024-02-21T17:30:07;1020.4;;;5.7;68
74435;BME280;62867;52.038;29.256;2024-02-21T17:34:37;1020.4;;;5.7;68
74435;BME280;62867;52.038;29.256;2024-02-21T17:40:07;1020.4;;;5.6;68.3
74435;BME280;62867;52.038;29.256;2024-02-21T17:44:47;1020.4;;;5.6;68.3
74435;BME280;62867;52.038;29.256;2024-02-21T17:50:07;1020.3;;;5.7;68.3
74435;BME280;62867;52.038;29.256;2024-02-21T17:54:41;1020.3;;;5.7;68.3
74435;BME280;62867;52.038;29.256;2024-02-21T17:59:57;1020.3;;;5.7;68.3
74435;BME280;62867;52.038;29.256;2024-02-21T18:05:07;1020.1;;;5.7;68.2
74435;BME280;62867;52.038;29.256;2024-02-21T18:10:07;1020.1;;;5.7;68.3
74435;BME280;62867;52.038;29.256;2024-02-21T18:14:51;1020.1;;;5.7;68.3
74435;BME280;62867;52.038;29.256;2024-02-21T18:20:07;1020;;;5.6;68
74435;BME280;62867;52.038;29.256;2024-02-21T18:25:07;1020;;;5.6;68.1
74435;BME280;62867;52.038;29.256;2024-02-21T18:29:47;1020;;;5.6;68.1
74435;BME280;62867;52.038;29.256;2024-02-21T18:34:59;1020;;;5.5;68.3
74435;BME280;62867;52.038;29.256;2024-02-21T18:39:16;1020;;;5.5;68.4
74435;BME280;62867;52.038;29.256;2024-02-21T18:44:15;1020;;;5.5;68.7
74435;BME280;62867;52.038;29.256;2024-02-21T18:49:49;1020;;;5.5;68.8
74435;BME280;62867;52.038;29.256;2024-02-21T18:54:23;1020;;;5.5;68.9
74435;BME280;62867;52.038;29.256;2024-02-21T18:59:31;1019.9;;;5.6;68.9
74435;BME280;62867;52.038;29.256;2024-02-21T19:04:27;1019.9;;;5.6;68.9
74435;BME280;62867;52.038;29.256;2024-02-21T19:09:37;1019.8;;;5.6;69
74435;BME280;62867;52.038;29.256;2024-02-21T19:15:05;1019.8;;;5.6;69
74435;BME280;62867;52.038;29.256;2024-02-21T19:19:43;1019.8;;;5.6;69
74435;BME280;62867;52.038;29.256;2024-02-21T19:24:37;1019.7;;;5.6;68.8
74435;BME280;62867;52.038;29.256;2024-02-21T19:30:07;1019.6;;;5.6;68.9
74435;BME280;62867;52.038;29.256;2024-02-21T19:34:47;1019.6;;;5.6;68.9
74435;BME280;62867;52.038;29.256;2024-02-21T19:40:07;1019.6;;;5.6;69.2
74435;BME280;62867;52.038;29.256;2024-02-21T19:44:41;1019.6;;;5.6;69.2
74435;BME280;62867;52.038;29.256;2024-02-21T19:49:51;1019.5;;;5.6;69.4
74435;BME280;62867;52.038;29.256;2024-02-21T19:54:41;1019.6;;;5.6;69.5
74435;BME280;62867;52.038;29.256;2024-02-21T20:00:07;1019.6;;;5.7;69.4
74435;BME280;62867;52.038;29.256;2024-02-21T20:04:15;1019.6;;;5.7;69.4
74435;BME280;62867;52.038;29.256;2024-02-21T20:09:51;1019.5;;;5.8;69.3
74435;BME280;62867;52.038;29.256;2024-02-21T20:14:23;1019.5;;;5.8;69.2
74435;BME280;62867;52.038;29.256;2024-02-21T20:20:07;1019.4;;;5.8;69
74435;BME280;62867;52.038;29.256;2024-02-21T20:24:15;1019.4;;;5.8;69
74435;BME280;62867;52.038;29.256;2024-02-21T20:29:33;1019.4;;;5.8;68.9
74435;BME280;62867;52.038;29.256;2024-02-21T20:34:51;1019.3;;;5.8;68.9
74435;BME280;62867;52.038;29.256;2024-02-21T20:39:57;1019.3;;;5.8;69
74435;BME280;62867;52.038;29.256;2024-02-21T20:44:45;1019.3;;;5.8;69.3
74435;BME280;62867;52.038;29.256;2024-02-21T20:50:07;1019.2;;;5.9;69.5
74435;BME280;62867;52.038;29.256;2024-02-21T20:55:07;1019.2;;;5.9;69.4
74435;BME280;62867;52.038;29.256;2024-02-21T20:59:39;1019.2;;;5.9;69.4
74435;BME280;62867;52.038;29.256;2024-02-21T21:04:55;1019.2;;;5.9;69.3
74435;BME280;62867;52.038;29.256;2024-02-21T21:09:30;1019.2;;;5.9;69.3
74435;BME280;62867;52.038;29.256;2024-02-21T21:14:49;1019.2;;;5.9;69.1
74435;BME280;62867;52.038;29.256;2024-02-21T21:19:39;1019.1;;;5.9;69
74435;BME280;62867;52.038;29.256;2024-02-21T21:24:49;1019.1;;;5.9;69
74435;BME280;62867;52.038;29.256;2024-02-21T21:29:39;1019.1;;;5.9;68.8
74435;BME280;62867;52.038;29.256;2024-02-21T21:35:06;1019.1;;;5.8;68.8
74435;BME280;62867;52.038;29.256;2024-02-21T21:39:29;1019.1;;;5.8;68.8
74435;BME280;62867;52.038;29.256;2024-02-21T21:44:49;1019.1;;;5.9;69
74435;BME280;62867;52.038;29.256;2024-02-21T21:49:15;1019.1;;;5.9;69.1
74435;BME280;62867;52.038;29.256;2024-02-21T21:55:05;1018.9;;;5.9;69.1
74435;BME280;62867;52.038;29.256;2024-02-21T21:59:29;1018.9;;;5.9;69.1
74435;BME280;62867;52.038;29.256;2024-02-21T22:04:15;1018.9;;;5.9;69.3
74435;BME280;62867;52.038;29.256;2024-02-21T22:09:49;1018.9;;;5.9;69.3
74435;BME280;62867;52.038;29.256;2024-02-21T22:14:29;1018.9;;;5.9;69
74435;BME280;62867;52.038;29.256;2024-02-21T22:19:49;1018.9;;;5.8;69
74435;BME280;62867;52.038;29.256;2024-02-21T22:25:05;1018.9;;;5.7;69
74435;BME280;62867;52.038;29.256;2024-02-21T22:30:07;1018.9;;;5.7;69.2
74435;BME280;62867;52.038;29.256;2024-02-21T22:34:15;1018.9;;;5.7;69.2
74435;BME280;62867;52.038;29.256;2024-02-21T22:39:57;1018.9;;;5.7;69.4
74435;BME280;62867;52.038;29.256;2024-02-21T22:44:39;1018.8;;;5.7;69.6
74435;BME280;62867;52.038;29.256;2024-02-21T22:49:33;1018.8;;;5.7;69.5
74435;BME280;62867;52.038;29.256;2024-02-21T22:54:23;1018.7;;;5.8;69.6
74435;BME280;62867;52.038;29.256;2024-02-21T22:59:43;1018.6;;;5.8;69.4
74435;BME280;62867;52.038;29.256;2024-02-21T23:04:41;1018.6;;;5.8;69.5
74435;BME280;62867;52.038;29.256;2024-02-21T23:09:57;1018.5;;;5.8;69.2
74435;BME280;62867;52.038;29.256;2024-02-21T23:14:47;1018.5;;;5.8;68.8
74435;BME280;62867;52.038;29.256;2024-02-21T23:20:07;1018.5;;;5.8;68.7
74435;BME280;62867;52.038;29.256;2024-02-21T23:25:09;1018.4;;;5.8;68.8
74435;BME280;62867;52.038;29.256;2024-02-21T23:29:47;1018.4;;;5.8;68.8
74435;BME280;62867;52.038;29.256;2024-02-21T23:35:07;1018.3;;;5.8;69.2
74435;BME280;62867;52.038;29.256;2024-02-21T23:39:15;1018.3;;;5.8;69.2
74435;BME280;62867;52.038;29.256;2024-02-21T23:44:15;1018.3;;;5.9;69.3
74435;BME280;62867;52.038;29.256;2024-02-21T23:49:57;1018.3;;;6;69.3
74435;BME280;62867;52.038;29.256;2024-02-21T23:54:15;1018.2;;;6;69.3
74435;BME280;62867;52.038;29.256;2024-02-21T23:59:51;1018.1;;;6;69.3
